Time;durP1;ratioP1;P1;durP2;ratioP2;P2;SDS_P1;SDS_P2;PMS_P1;PMS_P2;Temp;Humidity;BMP_temperature;BMP_pressure;BME280_temperature;BME280_humidity;BME280_pressure;Samples;Min_cycle;Max_cycle;Signal;HPM_P1;HPM_P2
2022/10/29 00:01:05;;;;;;;15.93;5.93;;;;;;;17.11;52.66;101085.41;10302604;28;20230;-80
2022/10/29 00:06:27;;;;;;;13.05;6.00;;;;;;;17.68;50.85;101093.59;10303296;28;20206;-80
2022/10/29 00:11:49;;;;;;;20.67;6.70;;;;;;;18.39;48.50;101074.63;10298695;28;20206;-79
2022/10/29 00:17:11;;;;;;;16.58;6.15;;;;;;;18.05;49.82;101087.63;10367599;28;20186;-79
2022/10/29 00:22:33;;;;;;;11.23;5.55;;;;;;;18.14;49.25;101086.22;10317200;28;20514;-79
2022/10/29 00:27:55;;;;;;;13.55;5.68;;;;;;;17.96;49.63;101073.56;10468150;28;20657;-79
2022/10/29 00:33:18;;;;;;;20.35;6.63;;;;;;;18.05;49.46;101071.34;10544532;28;20236;-79
2022/10/29 00:38:26;;;;;;;13.95;6.05;;;;;;;17.99;50.10;101073.63;10527128;28;20375;-79
2022/10/29 00:43:50;;;;;;;12.65;5.63;;;;;;;17.65;50.86;101084.94;10543356;28;20182;-79
2022/10/29 00:49:12;;;;;;;17.85;5.90;;;;;;;17.77;50.42;101082.00;10542463;28;20222;-80
2022/10/29 00:54:38;;;;;;;20.08;6.22;;;;;;;17.84;50.06;101087.88;10528363;28;20198;-79
2022/10/29 01:00:00;;;;;;;14.98;6.82;;;;;;;17.99;49.79;101084.19;10543531;28;20179;-79
2022/10/29 01:05:23;;;;;;;18.65;6.65;;;;;;;18.02;50.40;101080.63;10542654;28;20186;-79
2022/10/29 01:11:06;;;;;;;19.55;6.20;;;;;;;17.33;52.44;101084.84;10542371;28;20206;-79
2022/10/29 01:16:47;;;;;;;16.88;6.05;;;;;;;17.97;50.56;101063.78;10541736;28;20194;-79
2022/10/29 01:22:15;;;;;;;17.95;7.00;;;;;;;17.87;51.06;101068.03;10542892;28;20187;-79
2022/10/29 01:27:55;;;;;;;16.45;6.40;;;;;;;17.86;51.07;101062.69;10542054;28;20202;-79
2022/10/29 01:33:37;;;;;;;13.25;6.25;;;;;;;17.42;52.64;101068.41;10542119;28;20239;-79
2022/10/29 01:39:18;;;;;;;19.65;6.43;;;;;;;17.41;52.47;101069.59;10541936;28;20239;-80
2022/10/29 01:44:45;;;;;;;18.50;6.22;;;;;;;17.35;52.32;101047.44;10542363;28;20186;-80
2022/10/29 01:50:09;;;;;;;11.52;5.65;;;;;;;17.28;52.53;101048.06;10526820;28;20286;-79
2022/10/29 01:55:34;;;;;;;17.35;5.55;;;;;;;16.49;54.42;101039.22;10541495;28;20216;-79
2022/10/29 02:01:09;;;;;;;16.30;5.90;;;;;;;16.72;54.16;101032.97;10541463;28;20335;-79
2022/10/29 02:07:10;;;;;;;14.80;6.15;;;;;;;16.42;55.95;101026.75;10541303;28;20240;-79
2022/10/29 02:12:36;;;;;;;13.60;5.95;;;;;;;16.64;54.88;101009.16;10540741;28;20202;-79
2022/10/29 02:18:00;;;;;;;13.52;5.80;;;;;;;16.49;55.47;101024.16;10549473;28;20467;-79
2022/10/29 02:23:22;;;;;;;11.73;5.82;;;;;;;17.02;53.43;101022.09;10535046;28;20186;-79
2022/10/29 02:28:44;;;;;;;12.23;5.72;;;;;;;16.73;53.89;101014.69;10549874;28;20536;-79
2022/10/29 02:34:06;;;;;;;16.65;5.93;;;;;;;16.76;53.74;101016.84;10548901;28;20232;-79
2022/10/29 02:39:29;;;;;;;12.05;5.68;;;;;;;16.21;55.94;101018.34;10549586;28;20179;-79
2022/10/29 02:44:51;;;;;;;17.17;5.68;;;;;;;16.38;55.04;101005.94;10441913;28;20510;-79
2022/10/29 02:50:13;;;;;;;18.67;6.18;;;;;;;16.76;53.52;101008.28;10506109;28;20218;-79
2022/10/29 02:55:35;;;;;;;19.30;6.43;;;;;;;16.08;55.14;101000.47;10547939;28;20244;-79
2022/10/29 03:00:57;;;;;;;12.80;6.28;;;;;;;16.17;55.19;100992.63;10533863;28;20644;-79
2022/10/29 03:06:20;;;;;;;17.80;6.22;;;;;;;16.34;54.75;100985.06;10477339;28;20210;-79
2022/10/29 03:11:42;;;;;;;12.07;5.75;;;;;;;15.74;57.00;100990.44;10546889;28;20199;-79
2022/10/29 03:17:03;;;;;;;14.93;6.90;;;;;;;16.19;54.81;100984.59;10547206;28;20186;-79
2022/10/29 03:22:25;;;;;;;13.32;6.25;;;;;;;15.70;56.13;100994.34;10547372;28;20187;-79
2022/10/29 03:27:47;;;;;;;12.45;6.40;;;;;;;15.91;55.94;100983.66;10547565;28;20202;-79
2022/10/29 03:33:09;;;;;;;10.98;6.10;;;;;;;15.79;55.97;100998.72;10547285;28;20183;-79
2022/10/29 03:38:32;;;;;;;13.60;6.40;;;;;;;15.13;58.64;100998.00;10547305;28;20186;-79
2022/10/29 03:43:54;;;;;;;15.63;6.35;;;;;;;15.51;57.14;100986.38;10546093;28;20208;-79
2022/10/29 03:49:01;;;;;;;20.00;8.25;;;;;;;15.81;56.98;100987.00;10545687;28;20271;-80
2022/10/29 03:54:23;;;;;;;17.88;7.35;;;;;;;15.88;56.57;100978.72;10546194;28;20197;-79
2022/10/29 03:59:45;;;;;;;14.23;6.72;;;;;;;15.98;56.00;100985.94;10545280;28;20574;-79
2022/10/29 04:05:13;;;;;;;14.23;6.32;;;;;;;15.52;58.02;100988.88;10437232;28;20194;-79
2022/10/29 04:10:35;;;;;;;17.13;7.20;;;;;;;15.56;57.87;100991.84;10299837;28;20502;-79
2022/10/29 04:15:57;;;;;;;17.27;7.60;;;;;;;15.76;57.03;100987.22;10318641;28;20271;-79
2022/10/29 04:21:19;;;;;;;16.38;6.55;;;;;;;16.09;55.86;100979.41;10325723;28;20194;-79
2022/10/29 04:26:42;;;;;;;17.88;7.78;;;;;;;16.62;54.14;100977.38;10312667;28;20201;-79
2022/10/29 04:32:04;;;;;;;22.10;7.05;;;;;;;16.55;54.58;100960.09;10325766;28;20226;-79
2022/10/29 04:37:29;;;;;;;14.13;7.07;;;;;;;16.29;55.56;100945.47;10319407;28;20190;-79
2022/10/29 04:42:51;;;;;;;16.20;6.88;;;;;;;15.57;56.97;100947.22;10311664;28;20264;-79
2022/10/29 04:48:13;;;;;;;17.38;7.18;;;;;;;16.23;55.58;100946.94;10299257;28;20272;-79
2022/10/29 04:53:38;;;;;;;18.95;6.88;;;;;;;16.09;55.52;100956.66;10291111;28;20499;-80
2022/10/29 04:59:00;;;;;;;19.10;7.90;;;;;;;15.20;58.01;100981.22;10303985;28;20243;-79
2022/10/29 05:04:23;;;;;;;20.03;7.70;;;;;;;14.66;60.75;100961.38;10291436;28;20240;-80
2022/10/29 05:09:45;;;;;;;17.13;7.80;;;;;;;15.43;58.33;100934.16;10444586;28;20236;-79
2022/10/29 05:15:07;;;;;;;14.88;7.90;;;;;;;15.35;58.32;100931.44;10542568;28;20244;-80
2022/10/29 05:20:29;;;;;;;17.15;7.82;;;;;;;15.35;58.38;100925.75;10542351;28;20187;-80
2022/10/29 05:25:54;;;;;;;13.60;7.20;;;;;;;16.18;55.80;100897.59;10542102;28;20482;-80
2022/10/29 05:31:16;;;;;;;15.45;7.80;;;;;;;15.61;57.43;100899.88;10377142;28;20213;-79
2022/10/29 05:36:38;;;;;;;17.40;7.60;;;;;;;15.81;56.83;100904.56;10362136;28;20256;-80
2022/10/29 05:42:00;;;;;;;13.98;7.03;;;;;;;15.48;57.75;100891.31;10334772;28;20808;-80
2022/10/29 05:47:22;;;;;;;15.10;7.03;;;;;;;16.23;55.53;100909.94;10331013;28;20291;-80
2022/10/29 05:52:53;;;;;;;16.52;6.95;;;;;;;16.30;54.89;100913.00;10367808;28;20630;-80
2022/10/29 05:58:15;;;;;;;16.02;7.03;;;;;;;16.01;56.19;100902.75;10302195;28;20229;-80
2022/10/29 06:03:38;;;;;;;17.35;6.90;;;;;;;16.14;55.78;100908.06;10323682;28;20250;-80
2022/10/29 06:08:52;;;;;;;16.33;7.07;;;;;;;15.71;57.19;100919.25;10332547;28;20221;-80
2022/10/29 06:14:14;;;;;;;13.15;6.95;;;;;;;16.05;55.98;100913.03;10370257;28;20201;-80
2022/10/29 06:19:36;;;;;;;15.85;7.20;;;;;;;15.99;56.63;100907.97;10356408;28;20201;-79
2022/10/29 06:24:39;;;;;;;16.60;7.57;;;;;;;16.46;55.04;100913.88;10342912;28;20190;-80
2022/10/29 06:30:01;;;;;;;18.23;7.78;;;;;;;16.52;54.47;100901.06;10342862;28;20614;-79
2022/10/29 06:35:24;;;;;;;16.45;7.50;;;;;;;15.76;57.29;100899.09;10386349;28;20198;-80
2022/10/29 06:40:33;;;;;;;15.77;7.05;;;;;;;16.37;55.76;100904.69;10351042;28;20255;-80
2022/10/29 06:45:55;;;;;;;15.73;7.43;;;;;;;16.19;55.56;100902.09;10383799;28;20226;-80
2022/10/29 06:51:17;;;;;;;16.95;6.97;;;;;;;16.01;56.65;100909.28;10372160;28;20214;-80
2022/10/29 06:56:21;;;;;;;16.10;7.15;;;;;;;15.81;57.11;100894.03;10383763;28;20202;-80
2022/10/29 07:01:45;;;;;;;12.05;6.82;;;;;;;16.01;56.39;100906.44;10336542;28;20202;-80
2022/10/29 07:07:07;;;;;;;14.50;7.43;;;;;;;16.23;56.05;100909.94;10390401;28;20277;-80
2022/10/29 07:12:23;;;;;;;16.13;7.95;;;;;;;16.28;56.34;100906.88;10349252;28;20217;-80
2022/10/29 07:18:07;;;;;;;15.25;7.47;;;;;;;16.89;53.97;100911.06;10396154;28;20193;-80
2022/10/29 07:23:29;;;;;;;18.27;7.30;;;;;;;16.63;55.13;100905.03;10371970;28;20255;-80
2022/10/29 07:28:31;;;;;;;16.02;6.95;;;;;;;16.25;56.81;100901.88;10360546;28;20194;-80
2022/10/29 07:33:53;;;;;;;16.42;7.57;;;;;;;16.46;56.14;100905.34;10382897;28;20201;-79
2022/10/29 07:39:16;;;;;;;13.50;6.55;;;;;;;16.70;56.05;100910.09;10407354;28;20212;-80
2022/10/29 07:44:30;;;;;;;11.20;6.65;;;;;;;16.69;56.09;100916.97;10374714;28;20193;-80
2022/10/29 07:49:52;;;;;;;15.25;7.15;;;;;;;16.80;55.79;100913.25;10370626;28;20226;-80
2022/10/29 07:55:15;;;;;;;15.85;7.05;;;;;;;16.52;57.19;100904.75;10374022;28;20613;-80
2022/10/29 08:00:30;;;;;;;16.67;6.68;;;;;;;17.11;55.46;100911.66;10338063;28;20203;-80
2022/10/29 08:05:55;;;;;;;19.67;6.80;;;;;;;17.43;54.68;100912.50;10329600;28;20255;-80
2022/10/29 08:11:17;;;;;;;27.60;8.20;;;;;;;17.34;54.20;100924.06;10348313;28;20315;-80
2022/10/29 08:16:39;;;;;;;48.33;9.35;;;;;;;17.95;51.75;100906.47;10331190;28;20713;-80
2022/10/29 08:22:01;;;;;;;46.45;9.35;;;;;;;17.99;50.34;100901.66;10365109;28;20242;-80
2022/10/29 08:27:23;;;;;;;24.02;6.90;;;;;;;17.43;51.87;100906.81;10357984;28;20255;-80
2022/10/29 08:32:46;;;;;;;18.38;5.55;;;;;;;17.79;50.71;100905.69;10330833;28;20222;-81
2022/10/29 08:38:08;;;;;;;10.05;4.28;;;;;;;17.93;50.71;100908.88;10416407;28;20545;-80
2022/10/29 08:43:51;;;;;;;15.55;5.57;;;;;;;18.09;49.09;100898.25;10365097;28;20264;-80
2022/10/29 08:49:04;;;;;;;12.80;4.25;;;;;;;18.52;47.78;100884.88;10367683;28;20229;-80
2022/10/29 08:54:28;;;;;;;13.43;4.82;;;;;;;18.31;48.91;100880.41;10354833;28;20255;-81
2022/10/29 09:00:15;;;;;;;10.32;4.60;;;;;;;18.06;49.28;100889.59;10415122;28;20262;-79
2022/10/29 09:05:59;;;;;;;13.80;4.20;;;;;;;17.79;49.73;100880.84;10414586;28;20232;-82
2022/10/29 09:11:36;;;;;;;11.73;4.50;;;;;;;18.58;48.00;100872.81;10310850;28;20253;-79
2022/10/29 09:17:19;;;;;;;10.52;4.75;;;;;;;18.18;49.07;100876.00;10329695;28;20239;-79
2022/10/29 09:22:57;;;;;;;11.75;4.65;;;;;;;18.91;47.06;100872.19;10402150;28;20224;-82
2022/10/29 09:28:38;;;;;;;12.55;4.50;;;;;;;19.71;45.44;100862.59;10316340;28;20283;-81
2022/10/29 09:34:20;;;;;;;11.73;4.30;;;;;;;19.50;46.03;100855.69;10302764;28;20210;-80
2022/10/29 09:39:46;;;;;;;11.95;3.50;;;;;;;19.96;45.34;100859.25;10302169;28;20229;-81
2022/10/29 09:45:14;;;;;;;11.15;3.95;;;;;;;20.25;43.41;100861.31;10287828;28;20279;-80
2022/10/29 09:51:01;;;;;;;10.07;3.92;;;;;;;20.18;43.68;100858.34;10285186;28;20284;-80
2022/10/29 09:56:23;;;;;;;11.15;3.47;;;;;;;19.86;44.83;100851.34;10291210;28;20590;-79
2022/10/29 10:01:46;;;;;;;12.63;4.20;;;;;;;20.38;42.11;100851.25;10293675;28;20221;-81
2022/10/29 10:07:16;;;;;;;13.23;4.40;;;;;;;19.87;42.88;100847.28;10315131;28;20221;-80
2022/10/29 10:12:45;;;;;;;11.95;4.07;;;;;;;20.72;41.56;100831.16;10292487;28;20276;-80
2022/10/29 10:18:32;;;;;;;10.77;3.95;;;;;;;20.71;42.20;100836.06;10336640;28;20222;-81
2022/10/29 10:23:48;;;;;;;14.88;3.90;;;;;;;21.32;39.96;100836.69;10311177;28;20227;-81
2022/10/29 10:29:17;;;;;;;12.20;3.90;;;;;;;20.99;41.32;100847.03;10310868;28;20630;-79
2022/10/29 10:34:39;;;;;;;12.68;4.18;;;;;;;21.52;40.05;100840.94;10322762;28;20609;-80
2022/10/29 10:40:05;;;;;;;11.70;4.05;;;;;;;21.24;41.45;100835.78;10324898;28;20540;-81
2022/10/29 10:45:34;;;;;;;11.35;5.15;;;;;;;21.00;40.97;100830.66;10327590;28;20202;-82
2022/10/29 14:08:06;;;;;;;15.48;3.67;;;;;;;17.93;47.04;100684.38;10518671;27;20558;-82
2022/10/29 14:13:34;;;;;;;15.85;4.32;;;;;;;17.60;47.92;100689.78;10536228;27;20222;-84
2022/10/29 14:19:13;;;;;;;10.95;3.40;;;;;;;18.11;45.47;100681.84;10512574;28;20230;-84
2022/10/29 14:24:37;;;;;;;10.77;3.75;;;;;;;17.85;45.41;100684.59;10497579;28;20673;-83
2022/10/29 14:30:19;;;;;;;13.18;3.30;;;;;;;18.33;44.42;100675.38;10464297;28;20260;-83
2022/10/29 14:35:42;;;;;;;16.20;3.38;;;;;;;18.41;44.16;100666.94;10457677;28;20216;-81
2022/10/29 14:41:04;;;;;;;11.10;3.65;;;;;;;18.38;45.02;100664.84;10452502;28;20256;-81
2022/10/29 14:46:28;;;;;;;16.52;3.25;;;;;;;18.42;44.99;100665.72;10483367;28;20255;-83
2022/10/29 14:51:57;;;;;;;15.60;3.78;;;;;;;18.28;45.00;100663.44;10453218;28;20223;-81
2022/10/29 14:57:21;;;;;;;9.60;4.28;;;;;;;18.25;45.03;100672.72;10454373;28;20204;-80
2022/10/29 15:02:43;;;;;;;17.33;3.75;;;;;;;18.12;46.25;100672.09;10461233;28;20206;-84
2022/10/29 15:08:20;;;;;;;16.83;3.58;;;;;;;18.24;45.24;100674.75;10450528;28;20301;-86
2022/10/29 15:13:44;;;;;;;12.60;3.65;;;;;;;18.23;46.36;100664.56;10463097;28;20219;-82
2022/10/29 15:19:13;;;;;;;10.70;3.85;;;;;;;17.79;48.20;100657.63;10448215;28;20223;-81
2022/10/29 15:24:35;;;;;;;12.80;3.78;;;;;;;17.88;47.51;100649.63;10417741;28;20322;-82
2022/10/29 15:29:57;;;;;;;16.63;4.40;;;;;;;18.03;46.99;100654.41;10440875;28;20613;-82
2022/10/29 15:35:20;;;;;;;10.27;3.28;;;;;;;17.81;47.97;100643.81;10453900;28;20216;-82
2022/10/29 15:40:49;;;;;;;10.95;3.95;;;;;;;17.74;48.10;100649.34;10430160;28;20329;-82
2022/10/29 15:46:14;;;;;;;10.05;3.60;;;;;;;17.95;48.63;100655.50;10433030;28;20321;-81
2022/10/29 15:51:36;;;;;;;10.95;4.45;;;;;;;17.52;49.78;100648.91;10440677;28;20223;-82
2022/10/29 15:56:59;;;;;;;14.38;4.45;;;;;;;17.41;52.14;100644.19;10446289;28;20230;-83
2022/10/29 16:02:25;;;;;;;13.85;4.63;;;;;;;17.57;49.57;100645.75;10425953;28;20215;-83
2022/10/29 16:07:47;;;;;;;11.30;4.63;;;;;;;17.52;49.74;100651.75;10433598;28;20340;-83
2022/10/29 16:13:10;;;;;;;12.35;3.90;;;;;;;17.18;49.72;100649.81;10440208;28;20231;-83
2022/10/29 16:18:32;;;;;;;15.15;4.75;;;;;;;17.11;49.16;100646.78;10447948;28;20289;-81
2022/10/29 16:23:54;;;;;;;14.55;4.07;;;;;;;17.00;48.33;100654.25;10470055;28;20302;-84
2022/10/29 16:29:16;;;;;;;14.82;3.85;;;;;;;17.14;48.12;100649.72;10436499;28;20632;-82
2022/10/29 16:34:39;;;;;;;13.38;4.10;;;;;;;17.16;47.64;100650.19;10444431;28;20612;-83
2022/10/29 16:40:01;;;;;;;11.15;4.03;;;;;;;17.18;47.32;100649.81;10432944;28;20231;-81
2022/10/29 16:45:26;;;;;;;16.10;3.88;;;;;;;17.14;47.52;100644.03;10426754;28;20293;-80
2022/10/29 16:50:48;;;;;;;12.70;3.67;;;;;;;17.29;47.25;100648.00;10460265;28;20249;-80
2022/10/29 16:56:10;;;;;;;17.48;3.88;;;;;;;17.03;47.12;100636.44;10434100;28;20223;-81
2022/10/29 17:01:32;;;;;;;14.25;3.78;;;;;;;16.72;47.05;100631.63;10417637;28;20858;-80
2022/10/29 17:06:54;;;;;;;13.90;4.00;;;;;;;17.22;46.17;100627.91;10429905;28;20244;-81
2022/10/29 17:12:17;;;;;;;9.93;3.13;;;;;;;17.11;45.63;100632.53;10414150;28;20224;-80
2022/10/29 17:17:39;;;;;;;15.07;3.88;;;;;;;17.39;44.69;100627.47;10413053;28;20219;-81
2022/10/29 17:23:01;;;;;;;8.50;4.07;;;;;;;17.42;44.95;100626.72;10430271;28;20216;-83
2022/10/29 17:28:24;;;;;;;10.38;3.53;;;;;;;16.91;44.59;100623.97;10448684;28;20314;-82
2022/10/29 17:33:46;;;;;;;12.40;3.53;;;;;;;17.41;44.04;100624.25;10467159;28;20751;-82
2022/10/29 17:39:10;;;;;;;21.73;6.80;;;;;;;17.41;43.80;100630.75;10435814;28;20285;-81
2022/10/29 17:44:32;;;;;;;15.13;4.80;;;;;;;17.33;43.66;100620.41;10432253;28;20653;-81
2022/10/29 17:49:54;;;;;;;10.70;5.00;;;;;;;17.20;43.42;100621.75;10423015;28;20846;-81
2022/10/29 17:55:18;;;;;;;13.75;5.95;;;;;;;17.57;42.80;100616.44;10420368;28;20219;-80
2022/10/29 18:00:41;;;;;;;23.17;11.98;;;;;;;17.55;43.07;100616.81;10448703;28;20685;-83
2022/10/29 18:06:05;;;;;;;9.35;4.13;;;;;;;17.23;44.17;100618.16;10457408;28;20345;-82
2022/10/29 18:11:27;;;;;;;10.50;4.15;;;;;;;16.96;46.81;100619.19;10423401;28;20604;-81
2022/10/29 18:16:49;;;;;;;12.77;4.40;;;;;;;16.55;47.71;100615.75;10402523;28;20224;-80
2022/10/29 18:22:12;;;;;;;12.65;5.38;;;;;;;16.71;47.00;100619.41;10418855;28;20224;-81
2022/10/29 18:27:34;;;;;;;15.40;4.72;;;;;;;16.37;48.91;100623.06;10414792;28;20244;-81
2022/10/29 18:32:56;;;;;;;14.27;5.28;;;;;;;16.41;48.76;100615.41;10438471;28;20240;-82
2022/10/29 18:38:10;;;;;;;10.02;4.88;;;;;;;16.47;47.70;100619.63;10423355;28;20559;-83
2022/10/29 18:43:34;;;;;;;10.82;5.00;;;;;;;16.28;48.39;100620.38;10411943;28;20228;-82
2022/10/29 18:48:56;;;;;;;14.65;5.65;;;;;;;16.11;47.98;100624.41;10420652;28;20216;-83
2022/10/29 18:54:18;;;;;;;10.88;5.80;;;;;;;16.20;48.30;100610.81;10431755;28;20593;-81
2022/10/29 18:59:40;;;;;;;12.07;4.88;;;;;;;16.07;45.07;100600.72;10438008;28;20228;-80
2022/10/29 19:05:03;;;;;;;8.45;3.70;;;;;;;15.84;43.53;100586.31;10458318;28;20274;-80
2022/10/29 19:10:25;;;;;;;15.80;4.45;;;;;;;16.35;42.11;100583.59;10459062;28;20685;-80
2022/10/29 19:15:48;;;;;;;11.05;4.60;;;;;;;16.53;42.61;100589.72;10428977;28;20667;-81
2022/10/29 19:21:15;;;;;;;20.92;6.97;;;;;;;16.68;42.04;100583.13;10435442;28;20559;-85
2022/10/29 19:26:37;;;;;;;12.98;5.60;;;;;;;16.60;42.18;100584.19;10431095;28;20259;-83
2022/10/29 19:31:59;;;;;;;15.63;5.80;;;;;;;16.30;42.41;100585.88;10409593;28;20246;-84
2022/10/29 19:37:21;;;;;;;12.70;6.03;;;;;;;16.23;41.68;100583.69;10408639;28;20231;-83
2022/10/29 19:42:44;;;;;;;16.63;4.35;;;;;;;16.86;40.45;100584.38;10402831;28;20286;-80
2022/10/29 19:48:07;;;;;;;11.98;3.33;;;;;;;16.83;40.89;100578.59;10416003;28;20252;-82
2022/10/29 19:53:36;;;;;;;11.70;5.22;;;;;;;16.72;39.99;100578.34;10413052;28;20349;-83
2022/10/29 19:58:58;;;;;;;12.00;6.28;;;;;;;16.67;40.05;100578.63;10424749;28;20224;-81
2022/10/29 20:04:20;;;;;;;14.25;6.82;;;;;;;16.67;40.26;100577.84;10416351;28;20260;-82
2022/10/29 20:09:43;;;;;;;13.65;5.60;;;;;;;16.86;39.08;100575.00;10422656;28;20227;-82
2022/10/29 20:15:10;;;;;;;16.10;4.72;;;;;;;17.16;37.96;100578.16;10441475;28;20588;-82
2022/10/29 20:20:32;;;;;;;12.15;3.08;;;;;;;17.04;38.01;100581.13;10434175;28;20623;-84
2022/10/29 20:25:55;;;;;;;12.27;3.65;;;;;;;17.34;37.63;100573.63;10419428;28;20313;-83
2022/10/29 20:31:17;;;;;;;11.80;4.70;;;;;;;17.70;36.38;100578.03;10451312;28;20611;-81
2022/10/29 20:36:39;;;;;;;10.68;4.55;;;;;;;17.51;36.59;100581.72;10432034;28;20274;-81
2022/10/29 20:41:58;;;;;;;12.60;3.75;;;;;;;17.41;36.57;100585.19;10441103;28;20219;-81
2022/10/29 20:47:20;;;;;;;11.93;4.30;;;;;;;17.22;38.51;100576.63;10435326;28;21355;-82
2022/10/29 20:52:42;;;;;;;9.45;3.55;;;;;;;17.10;39.14;100585.31;10426214;28;20220;-80
2022/10/29 20:58:04;;;;;;;12.63;4.15;;;;;;;16.72;39.77;100586.91;10443599;28;20219;-81
2022/10/29 21:03:27;;;;;;;12.88;3.80;;;;;;;16.72;41.11;100598.28;10437648;28;20568;-81
2022/10/29 21:08:50;;;;;;;12.85;3.53;;;;;;;16.66;40.70;100596.94;10427497;28;20243;-82
2022/10/29 21:14:14;;;;;;;13.43;3.47;;;;;;;16.54;41.17;100594.19;10436151;28;20215;-80
2022/10/29 21:19:39;;;;;;;9.90;3.28;;;;;;;16.43;42.71;100598.78;10423931;28;20562;-81
2022/10/29 21:25:01;;;;;;;9.77;3.40;;;;;;;16.67;41.39;100598.56;10439330;28;20326;-79
2022/10/29 21:30:23;;;;;;;9.57;3.17;;;;;;;16.98;38.21;100599.69;10435402;28;20572;-81
2022/10/29 21:35:50;;;;;;;8.68;2.90;;;;;;;17.00;37.28;100603.84;10405852;28;20238;-80
2022/10/29 21:41:13;;;;;;;10.85;3.50;;;;;;;17.38;37.73;100614.41;10436833;28;20620;-81
2022/10/29 21:46:35;;;;;;;13.60;3.92;;;;;;;16.80;39.01;100622.84;10427833;28;20244;-83
2022/10/29 21:51:57;;;;;;;12.48;3.03;;;;;;;16.76;39.72;100619.13;10416296;28;20318;-83
2022/10/29 21:57:19;;;;;;;11.68;3.63;;;;;;;16.71;39.86;100625.09;10434894;28;20224;-80
2022/10/29 22:02:41;;;;;;;11.13;3.50;;;;;;;16.36;41.86;100624.25;10439932;28;20224;-81
2022/10/29 22:08:04;;;;;;;10.75;3.35;;;;;;;16.19;42.98;100634.75;10426404;28;20529;-81
2022/10/29 22:13:21;;;;;;;8.18;3.15;;;;;;;16.43;41.44;100621.56;10441608;28;20333;-80
2022/10/29 22:18:43;;;;;;;13.60;4.10;;;;;;;16.63;40.35;100628.97;10436835;28;20215;-82
2022/10/29 22:24:06;;;;;;;9.30;4.13;;;;;;;16.46;39.56;100624.50;10440742;28;20694;-83
2022/10/29 22:29:28;;;;;;;13.00;3.90;;;;;;;16.60;39.71;100626.03;10443185;28;20246;-81
2022/10/29 22:34:50;;;;;;;13.43;3.65;;;;;;;16.51;41.75;100631.94;10444031;28;20285;-79
2022/10/29 22:40:12;;;;;;;18.33;4.32;;;;;;;16.32;41.84;100626.16;10445843;28;20807;-81
2022/10/29 22:45:34;;;;;;;8.82;3.65;;;;;;;15.73;43.94;100639.22;10432985;28;20309;-81
2022/10/29 22:51:01;;;;;;;10.60;3.50;;;;;;;15.52;44.39;100635.75;10431063;28;20551;-81
2022/10/29 22:56:28;;;;;;;9.13;3.38;;;;;;;15.84;44.41;100634.66;10428892;28;20290;-82
2022/10/29 23:01:51;;;;;;;14.40;4.05;;;;;;;15.71;43.17;100632.25;10452926;28;20216;-80
2022/10/29 23:07:14;;;;;;;8.55;3.47;;;;;;;15.68;45.59;100630.13;10449827;28;20248;-82
2022/10/29 23:12:31;;;;;;;10.90;3.97;;;;;;;15.68;45.63;100630.13;10439904;28;20223;-79
2022/10/29 23:17:53;;;;;;;8.77;3.80;;;;;;;15.97;43.19;100635.41;10472403;28;20206;-81
2022/10/29 23:23:15;;;;;;;9.95;3.33;;;;;;;16.11;43.09;100629.25;10454413;28;20290;-85
2022/10/29 23:28:38;;;;;;;8.32;3.70;;;;;;;16.11;41.55;100635.78;10455606;28;20315;-80
2022/10/29 23:34:00;;;;;;;11.68;3.20;;;;;;;16.38;41.02;100622.69;10491137;28;20212;-83
2022/10/29 23:39:22;;;;;;;7.05;3.22;;;;;;;16.11;41.89;100618.72;10464414;28;20199;-82
2022/10/29 23:44:45;;;;;;;7.50;2.45;;;;;;;16.15;41.86;100625.31;10479851;28;20195;-82
2022/10/29 23:50:07;;;;;;;8.55;2.63;;;;;;;16.12;42.51;100625.22;10461828;28;20203;-82
2022/10/29 23:55:29;;;;;;;13.48;3.22;;;;;;;16.30;41.08;100625.69;10470950;28;20277;-80
